This is the latest recevied weather packets stored in our database for station/object N6DZK. If no packets are shown the sender has not sent any weather packets the latest 10 day(s).
| Time | Temp. | Humidity | Pressure | Rain* | Wind** | Luminosity | Snow |
|---|---|---|---|---|---|---|---|
| 1777832177 | 19.44° C | 57% | 1013.8 hPa | 0 mm | - | 342 W/m² | - |
| 1777831874 | 19.44° C | 55% | 1013.8 hPa | 0 mm | - | 347 W/m² | - |
| 1777831571 | 20° C | 52% | 1013.6 hPa | 0 mm | - | 381 W/m² | - |
| 1777831269 | 21.11° C | 50% | 1013.8 hPa | 0 mm | - | 510 W/m² | - |
| 1777830965 | 20° C | 55% | 1013.6 hPa | 0 mm | - | 626 W/m² | - |
| 1777830662 | 19.44° C | 57% | 1013.7 hPa | 0 mm | - | 632 W/m² | - |
| 1777830359 | 19.44° C | 55% | 1013.7 hPa | 0 mm | - | 540 W/m² | - |
| 1777830056 | 19.44° C | 56% | 1013.8 hPa | 0 mm | - | 327 W/m² | - |
| 1777829751 | 19.44° C | 56% | 1013.6 hPa | 0 mm | - | 344 W/m² | - |
| 1777829447 | 20.56° C | 53% | 1013.5 hPa | 0 mm | - | 926 W/m² | - |
| 1777829145 | 20.56° C | 55% | 1013.6 hPa | 0 mm | - | 874 W/m² | - |
| 1777828842 | 20° C | 59% | 1013.5 hPa | 0 mm | - | 850 W/m² | - |
| 1777828538 | 19.44° C | 60% | 1013.5 hPa | 0 mm | - | 506 W/m² | - |
| 1777828236 | 18.89° C | 63% | 1013.7 hPa | 0 mm | - | 681 W/m² | - |
| 1777827932 | 17.22° C | 68% | 1013.6 hPa | 0 mm | - | 882 W/m² | - |
| 1777827629 | 17.78° C | 64% | 1013.7 hPa | 0 mm | - | 228 W/m² | - |
| 1777827327 | 18.89° C | 60% | 1013.4 hPa | 0 mm | - | 251 W/m² | - |
| 1777827023 | 19.44° C | 61% | 1013.7 hPa | 0 mm | - | 472 W/m² | - |
| 1777826720 | 17.78° C | 65% | 1013.4 hPa | 0 mm | - | 771 W/m² | - |
| 1777826416 | 17.22° C | 68% | 1013.3 hPa | 0 mm | - | 333 W/m² | - |
| 1777826114 | 17.22° C | 66% | 1013.4 hPa | 0 mm | - | 527 W/m² | - |
| 1777825811 | 17.22° C | 67% | 1013.7 hPa | 0 mm | - | 566 W/m² | - |
| 1777825508 | 16.67° C | 68% | 1013.6 hPa | 0 mm | - | 374 W/m² | - |
| 1777825206 | 16.67° C | 68% | 1013.6 hPa | 0 mm | - | 374 W/m² | - |
| 1777824903 | 16.11° C | 70% | 1013.6 hPa | 0 mm | - | 362 W/m² | - |
* Rain latest hour (hover to see other rain measurements)
** Current wind speed in m/s (hover to see current wind gust speed)